EIN255 EGCC-EIDW
Flight info
| Callsign | EIN255 |
|---|---|
| Flight time | 0h 33m |
| Altitude | 24000 |
| Route | ASMIM L975 WAL L10 PENIL L28 LELDO M145 BAGSO BAGSO4L |
| Aircraft | A320/M-SDE3FGHIRWY/LB1 |
Departure
| Time | 2026-05-04 20:13 |
|---|---|
| Airport | Manchester Airport (EGCC) |
Arrival
| Time | 2026-05-04 20:47 |
|---|---|
| Airport | Dublin Airport (EIDW) |
| Time | Latitude | Longitude | Altitude | Speed | Heading |
|---|---|---|---|---|---|
| 2026-05-04 19:35 | 53.36556 | -2.27933 | 233 ft | 0 kts | 44° |
| 2026-05-04 19:53 | 53.36552 | -2.27940 | 233 ft | 2 kts | 44° |
| 2026-05-04 19:53 | 53.36539 | -2.27960 | 234 ft | 2 kts | 44° |
| 2026-05-04 19:53 | 53.36527 | -2.27980 | 234 ft | 2 kts | 44° |
| 2026-05-04 19:54 | 53.36515 | -2.28002 | 235 ft | 3 kts | 68° |
| 2026-05-04 19:54 | 53.36511 | -2.28031 | 234 ft | 3 kts | 104° |
| 2026-05-04 19:54 | 53.36519 | -2.28059 | 235 ft | 3 kts | 141° |
| 2026-05-04 19:54 | 53.36526 | -2.28067 | 236 ft | 0 kts | 146° |
| 2026-05-04 19:55 | 53.36530 | -2.28071 | 237 ft | 0 kts | 136° |
| 2026-05-04 19:57 | 53.36523 | -2.28061 | 236 ft | 4 kts | 136° |
| 2026-05-04 19:57 | 53.36506 | -2.28033 | 234 ft | 3 kts | 136° |
| 2026-05-04 19:58 | 53.36493 | -2.28012 | 216 ft | 2 kts | 137° |
| 2026-05-04 19:58 | 53.36483 | -2.28003 | 246 ft | 2 kts | 150° |
| 2026-05-04 19:58 | 53.36434 | -2.27937 | 233 ft | 11 kts | 136° |
| 2026-05-04 19:58 | 53.36379 | -2.27951 | 233 ft | 8 kts | 223° |
| 2026-05-04 19:59 | 53.36339 | -2.28015 | 233 ft | 7 kts | 224° |
| 2026-05-04 19:59 | 53.36300 | -2.28058 | 233 ft | 6 kts | 201° |
| 2026-05-04 19:59 | 53.36261 | -2.28076 | 233 ft | 6 kts | 192° |
| 2026-05-04 19:59 | 53.36220 | -2.28089 | 233 ft | 6 kts | 187° |
| 2026-05-04 20:00 | 53.36197 | -2.28064 | 234 ft | 3 kts | 138° |
| 2026-05-04 20:00 | 53.36180 | -2.28038 | 233 ft | 6 kts | 135° |
| 2026-05-04 20:00 | 53.36128 | -2.27952 | 233 ft | 11 kts | 135° |
| 2026-05-04 20:00 | 53.36100 | -2.27907 | 233 ft | 0 kts | 136° |
| 2026-05-04 20:01 | 53.36099 | -2.27905 | 233 ft | 2 kts | 136° |
| 2026-05-04 20:01 | 53.36085 | -2.27884 | 233 ft | 0 kts | 140° |
| 2026-05-04 20:01 | 53.36052 | -2.27861 | 233 ft | 7 kts | 177° |
| 2026-05-04 20:01 | 53.36006 | -2.27859 | 233 ft | 6 kts | 157° |
| 2026-05-04 20:02 | 53.35968 | -2.27847 | 233 ft | 5 kts | 176° |
| 2026-05-04 20:02 | 53.35934 | -2.27844 | 235 ft | 4 kts | 176° |
| 2026-05-04 20:02 | 53.35909 | -2.27843 | 233 ft | 3 kts | 181° |
| 2026-05-04 20:02 | 53.35891 | -2.27844 | 233 ft | 2 kts | 182° |
| 2026-05-04 20:03 | 53.35879 | -2.27845 | 233 ft | 1 kts | 182° |
| 2026-05-04 20:03 | 53.35868 | -2.27846 | 233 ft | 5 kts | 182° |
| 2026-05-04 20:03 | 53.35853 | -2.27847 | 233 ft | 0 kts | 183° |
| 2026-05-04 20:03 | 53.35851 | -2.27845 | 233 ft | 1 kts | 165° |
| 2026-05-04 20:04 | 53.35846 | -2.27804 | 233 ft | 1 kts | 89° |
| 2026-05-04 20:04 | 53.35814 | -2.27732 | 234 ft | 6 kts | 147° |
| 2026-05-04 20:04 | 53.35786 | -2.27696 | 233 ft | 5 kts | 138° |
| 2026-05-04 20:04 | 53.35764 | -2.27664 | 233 ft | 4 kts | 142° |
| 2026-05-04 20:05 | 53.35745 | -2.27647 | 233 ft | 3 kts | 155° |
| 2026-05-04 20:05 | 53.35718 | -2.27628 | 233 ft | 3 kts | 158° |
| 2026-05-04 20:05 | 53.35675 | -2.27595 | 234 ft | 5 kts | 150° |
| 2026-05-04 20:05 | 53.35650 | -2.27567 | 234 ft | 4 kts | 143° |
| 2026-05-04 20:06 | 53.35631 | -2.27541 | 233 ft | 5 kts | 132° |
| 2026-05-04 20:06 | 53.35632 | -2.27436 | 235 ft | 10 kts | 60° |
| 2026-05-04 20:06 | 53.35658 | -2.27374 | 233 ft | 9 kts | 52° |
| 2026-05-04 20:06 | 53.35709 | -2.27270 | 233 ft | 8 kts | 50° |
| 2026-05-04 20:07 | 53.35741 | -2.27206 | 233 ft | 7 kts | 50° |
| 2026-05-04 20:07 | 53.35769 | -2.27150 | 233 ft | 6 kts | 50° |
| 2026-05-04 20:07 | 53.35793 | -2.27104 | 233 ft | 5 kts | 50° |
| 2026-05-04 20:07 | 53.35813 | -2.27060 | 234 ft | 5 kts | 55° |
| 2026-05-04 20:08 | 53.35844 | -2.26972 | 233 ft | 18 kts | 60° |
| 2026-05-04 20:08 | 53.35919 | -2.26794 | 234 ft | 19 kts | 56° |
| 2026-05-04 20:08 | 53.36002 | -2.26607 | 234 ft | 21 kts | 52° |
| 2026-05-04 20:08 | 53.36086 | -2.26432 | 234 ft | 14 kts | 51° |
| 2026-05-04 20:09 | 53.36147 | -2.26304 | 234 ft | 14 kts | 51° |
| 2026-05-04 20:09 | 53.36220 | -2.26200 | 233 ft | 14 kts | 50° |
| 2026-05-04 20:09 | 53.36268 | -2.26096 | 233 ft | 1 kts | 60° |
| 2026-05-04 20:09 | 53.36271 | -2.26089 | 233 ft | 0 kts | 60° |
| 2026-05-04 20:10 | 53.36271 | -2.26087 | 233 ft | 0 kts | 60° |
| 2026-05-04 20:10 | 53.36272 | -2.26083 | 233 ft | 2 kts | 72° |
| 2026-05-04 20:10 | 53.36273 | -2.25986 | 233 ft | 7 kts | 75° |
| 2026-05-04 20:10 | 53.36287 | -2.25910 | 233 ft | 6 kts | 73° |
| 2026-05-04 20:11 | 53.36289 | -2.25841 | 233 ft | 6 kts | 99° |
| 2026-05-04 20:11 | 53.36270 | -2.25779 | 235 ft | 6 kts | 130° |
| 2026-05-04 20:11 | 53.36241 | -2.25751 | 233 ft | 4 kts | 170° |
| 2026-05-04 20:11 | 53.36219 | -2.25762 | 233 ft | 3 kts | 211° |
| 2026-05-04 20:12 | 53.36207 | -2.25776 | 234 ft | 2 kts | 219° |
| 2026-05-04 20:12 | 53.36116 | -2.25957 | 240 ft | 56 kts | 231° |
| 2026-05-04 20:12 | 53.35722 | -2.26774 | 244 ft | 123 kts | 232° |
| 2026-05-04 20:12 | 53.35325 | -2.27635 | 262 ft | 157 kts | 232° |
| 2026-05-04 20:13 | 53.34540 | -2.29021 | 766 ft | 167 kts | 228° |
| 2026-05-04 20:13 | 53.33733 | -2.30454 | 1514 ft | 172 kts | 232° |
| 2026-05-04 20:13 | 53.32953 | -2.32092 | 1962 ft | 191 kts | 236° |
| 2026-05-04 20:13 | 53.32244 | -2.34099 | 2316 ft | 212 kts | 258° |
| 2026-05-04 20:14 | 53.32220 | -2.36657 | 2745 ft | 233 kts | 276° |
| 2026-05-04 20:14 | 53.32343 | -2.39483 | 3377 ft | 251 kts | 274° |
| 2026-05-04 20:14 | 53.32433 | -2.42431 | 4307 ft | 256 kts | 273° |
| 2026-05-04 20:14 | 53.32238 | -2.45408 | 5261 ft | 262 kts | 254° |
| 2026-05-04 20:15 | 53.31703 | -2.48342 | 6265 ft | 265 kts | 253° |
| 2026-05-04 20:15 | 53.31156 | -2.51299 | 7211 ft | 268 kts | 253° |
| 2026-05-04 20:15 | 53.30601 | -2.54296 | 8124 ft | 272 kts | 253° |
| 2026-05-04 20:15 | 53.30040 | -2.57333 | 9032 ft | 275 kts | 253° |
| 2026-05-04 20:16 | 53.29471 | -2.60416 | 9943 ft | 280 kts | 253° |
| 2026-05-04 20:16 | 53.28883 | -2.63602 | 10464 ft | 297 kts | 253° |
| 2026-05-04 20:16 | 53.28256 | -2.66992 | 10746 ft | 321 kts | 253° |
| 2026-05-04 20:16 | 53.27561 | -2.70738 | 10970 ft | 345 kts | 253° |
| 2026-05-04 20:17 | 53.26866 | -2.74677 | 11378 ft | 360 kts | 258° |
| 2026-05-04 20:17 | 53.26583 | -2.78833 | 12040 ft | 365 kts | 270° |
| 2026-05-04 20:17 | 53.26858 | -2.83044 | 12756 ft | 370 kts | 282° |
| 2026-05-04 20:17 | 53.27707 | -2.87120 | 13483 ft | 375 kts | 295° |
| 2026-05-04 20:18 | 53.29107 | -2.90829 | 14150 ft | 381 kts | 306° |
| 2026-05-04 20:18 | 53.30711 | -2.94376 | 14783 ft | 384 kts | 306° |
| 2026-05-04 20:18 | 53.32325 | -2.97967 | 15417 ft | 388 kts | 306° |
| 2026-05-04 20:18 | 53.33949 | -3.01607 | 16055 ft | 392 kts | 306° |
| 2026-05-04 20:19 | 53.35583 | -3.05290 | 16685 ft | 396 kts | 305° |
| 2026-05-04 20:19 | 53.37229 | -3.09007 | 17300 ft | 400 kts | 305° |
| 2026-05-04 20:19 | 53.38900 | -3.12776 | 17918 ft | 404 kts | 306° |
| 2026-05-04 20:19 | 53.40579 | -3.16593 | 18489 ft | 409 kts | 305° |
| 2026-05-04 20:20 | 53.42252 | -3.20467 | 18993 ft | 413 kts | 305° |
| 2026-05-04 20:20 | 53.43925 | -3.24403 | 19495 ft | 416 kts | 304° |
| 2026-05-04 20:20 | 53.45604 | -3.28387 | 19987 ft | 420 kts | 305° |
| 2026-05-04 20:20 | 53.47293 | -3.32406 | 20476 ft | 423 kts | 305° |
| 2026-05-04 20:21 | 53.48997 | -3.36453 | 20957 ft | 426 kts | 305° |
| 2026-05-04 20:21 | 53.50717 | -3.40523 | 21414 ft | 429 kts | 306° |
| 2026-05-04 20:21 | 53.54202 | -3.48757 | 22309 ft | 435 kts | 306° |
| 2026-05-04 20:22 | 53.55963 | -3.52924 | 22738 ft | 438 kts | 306° |
| 2026-05-04 20:22 | 53.57728 | -3.57116 | 23146 ft | 441 kts | 306° |
| 2026-05-04 20:22 | 53.59404 | -3.61453 | 23571 ft | 444 kts | 299° |
| 2026-05-04 20:22 | 53.60708 | -3.66181 | 23918 ft | 447 kts | 291° |
| 2026-05-04 20:23 | 53.61601 | -3.71203 | 24054 ft | 449 kts | 283° |
| 2026-05-04 20:23 | 53.62047 | -3.76469 | 24090 ft | 460 kts | 275° |
| 2026-05-04 20:23 | 53.62258 | -3.81830 | 24087 ft | 467 kts | 274° |
| 2026-05-04 20:23 | 53.62476 | -3.87338 | 24090 ft | 468 kts | 274° |
| 2026-05-04 20:24 | 53.62693 | -3.92764 | 24088 ft | 468 kts | 274° |
| 2026-05-04 20:24 | 53.62915 | -3.98240 | 24092 ft | 468 kts | 274° |
| 2026-05-04 20:24 | 53.63138 | -4.03713 | 24093 ft | 468 kts | 274° |
| 2026-05-04 20:24 | 53.63356 | -4.09191 | 24092 ft | 468 kts | 274° |
| 2026-05-04 20:25 | 53.63568 | -4.14664 | 24092 ft | 468 kts | 274° |
| 2026-05-04 20:25 | 53.63775 | -4.20135 | 24094 ft | 468 kts | 274° |
| 2026-05-04 20:25 | 53.63978 | -4.25609 | 24043 ft | 468 kts | 274° |
| 2026-05-04 20:25 | 53.64180 | -4.31077 | 23113 ft | 466 kts | 274° |
| 2026-05-04 20:26 | 53.64381 | -4.36511 | 22052 ft | 463 kts | 274° |
| 2026-05-04 20:26 | 53.64576 | -4.41888 | 21160 ft | 457 kts | 274° |
| 2026-05-04 20:26 | 53.64765 | -4.47189 | 20335 ft | 451 kts | 274° |
| 2026-05-04 20:26 | 53.64948 | -4.52427 | 19551 ft | 445 kts | 274° |
| 2026-05-04 20:27 | 53.65130 | -4.57602 | 18794 ft | 440 kts | 273° |
| 2026-05-04 20:27 | 53.65307 | -4.62651 | 18037 ft | 435 kts | 273° |
| 2026-05-04 20:27 | 53.65484 | -4.67706 | 17258 ft | 429 kts | 273° |
| 2026-05-04 20:27 | 53.65657 | -4.72705 | 16835 ft | 426 kts | 273° |
| 2026-05-04 20:28 | 53.65823 | -4.77670 | 16048 ft | 422 kts | 273° |
| 2026-05-04 20:28 | 53.65983 | -4.82579 | 15321 ft | 417 kts | 273° |
| 2026-05-04 20:28 | 53.66140 | -4.87430 | 14620 ft | 412 kts | 273° |
| 2026-05-04 20:28 | 53.66294 | -4.92222 | 13945 ft | 407 kts | 273° |
| 2026-05-04 20:29 | 53.66445 | -4.96966 | 13221 ft | 403 kts | 273° |
| 2026-05-04 20:29 | 53.66592 | -5.01640 | 12577 ft | 396 kts | 273° |
| 2026-05-04 20:29 | 53.66736 | -5.06239 | 11928 ft | 390 kts | 273° |
| 2026-05-04 20:29 | 53.66876 | -5.10755 | 11427 ft | 380 kts | 273° |
| 2026-05-04 20:30 | 53.67008 | -5.15093 | 11302 ft | 361 kts | 273° |
| 2026-05-04 20:30 | 53.67132 | -5.19216 | 11173 ft | 343 kts | 273° |
| 2026-05-04 20:30 | 53.67247 | -5.23146 | 11050 ft | 328 kts | 273° |
| 2026-05-04 20:30 | 53.67356 | -5.26909 | 10924 ft | 314 kts | 273° |
| 2026-05-04 20:31 | 53.67458 | -5.30488 | 10804 ft | 301 kts | 273° |
| 2026-05-04 20:31 | 53.67556 | -5.33954 | 10660 ft | 290 kts | 273° |
| 2026-05-04 20:31 | 53.67650 | -5.37318 | 10455 ft | 283 kts | 273° |
| 2026-05-04 20:31 | 53.67742 | -5.40629 | 10395 ft | 283 kts | 273° |
| 2026-05-04 20:32 | 53.67833 | -5.43940 | 10323 ft | 283 kts | 273° |
| 2026-05-04 20:32 | 53.67924 | -5.47250 | 10208 ft | 282 kts | 273° |
| 2026-05-04 20:32 | 53.68013 | -5.50547 | 9993 ft | 280 kts | 273° |
| 2026-05-04 20:32 | 53.68100 | -5.53820 | 9582 ft | 279 kts | 273° |
| 2026-05-04 20:33 | 53.68185 | -5.57064 | 9317 ft | 272 kts | 273° |
| 2026-05-04 20:33 | 53.68264 | -5.60151 | 9136 ft | 262 kts | 273° |
| 2026-05-04 20:33 | 53.68258 | -5.63218 | 8757 ft | 262 kts | 264° |
| 2026-05-04 20:33 | 53.67801 | -5.66186 | 8378 ft | 262 kts | 249° |
| 2026-05-04 20:34 | 53.66895 | -5.68839 | 8013 ft | 262 kts | 233° |
| 2026-05-04 20:34 | 53.65695 | -5.71144 | 7627 ft | 261 kts | 228° |
| 2026-05-04 20:34 | 53.64186 | -5.72845 | 7262 ft | 264 kts | 200° |
| 2026-05-04 20:34 | 53.62364 | -5.73043 | 6896 ft | 267 kts | 168° |
| 2026-05-04 20:35 | 53.60760 | -5.71648 | 6762 ft | 257 kts | 137° |
| 2026-05-04 20:35 | 53.59660 | -5.69369 | 6635 ft | 246 kts | 126° |
| 2026-05-04 20:35 | 53.58663 | -5.67098 | 6446 ft | 238 kts | 127° |
| 2026-05-04 20:35 | 53.57674 | -5.64884 | 6132 ft | 236 kts | 131° |
| 2026-05-04 20:36 | 53.56482 | -5.63021 | 5818 ft | 233 kts | 146° |
| 2026-05-04 20:36 | 53.55123 | -5.61619 | 5657 ft | 225 kts | 150° |
| 2026-05-04 20:36 | 53.53803 | -5.60283 | 5526 ft | 217 kts | 150° |
| 2026-05-04 20:36 | 53.52537 | -5.58988 | 5374 ft | 210 kts | 150° |
| 2026-05-04 20:37 | 53.51275 | -5.57778 | 5126 ft | 207 kts | 162° |
| 2026-05-04 20:37 | 53.49885 | -5.57470 | 4873 ft | 200 kts | 192° |
| 2026-05-04 20:37 | 53.48625 | -5.58310 | 4590 ft | 194 kts | 221° |
| 2026-05-04 20:37 | 53.47778 | -5.60004 | 4285 ft | 189 kts | 249° |
| 2026-05-04 20:38 | 53.47329 | -5.62066 | 4013 ft | 188 kts | 253° |
| 2026-05-04 20:38 | 53.46899 | -5.64105 | 3750 ft | 188 kts | 253° |
| 2026-05-04 20:38 | 53.46456 | -5.66174 | 3483 ft | 189 kts | 253° |
| 2026-05-04 20:38 | 53.46057 | -5.68029 | 3250 ft | 189 kts | 253° |
| 2026-05-04 20:39 | 53.45609 | -5.70105 | 3059 ft | 189 kts | 253° |
| 2026-05-04 20:39 | 53.45160 | -5.72181 | 3028 ft | 189 kts | 253° |
| 2026-05-04 20:39 | 53.44711 | -5.74265 | 3028 ft | 190 kts | 253° |
| 2026-05-04 20:39 | 53.44260 | -5.76347 | 3031 ft | 190 kts | 253° |
| 2026-05-04 20:40 | 53.43809 | -5.78433 | 3030 ft | 190 kts | 253° |
| 2026-05-04 20:40 | 53.43358 | -5.80518 | 3029 ft | 190 kts | 253° |
| 2026-05-04 20:40 | 53.42906 | -5.82605 | 3032 ft | 191 kts | 253° |
| 2026-05-04 20:40 | 53.42442 | -5.84745 | 3032 ft | 199 kts | 253° |
| 2026-05-04 20:41 | 53.41965 | -5.86936 | 3035 ft | 201 kts | 253° |
| 2026-05-04 20:41 | 53.41484 | -5.89136 | 3033 ft | 201 kts | 253° |
| 2026-05-04 20:41 | 53.41003 | -5.91339 | 3031 ft | 201 kts | 253° |
| 2026-05-04 20:41 | 53.40525 | -5.93537 | 3039 ft | 201 kts | 254° |
| 2026-05-04 20:42 | 53.40361 | -5.95808 | 3029 ft | 195 kts | 279° |
| 2026-05-04 20:42 | 53.40494 | -5.98023 | 3053 ft | 183 kts | 278° |
| 2026-05-04 20:42 | 53.40611 | -6.00054 | 3037 ft | 167 kts | 279° |
| 2026-05-04 20:42 | 53.40719 | -6.01928 | 2934 ft | 157 kts | 279° |
| 2026-05-04 20:43 | 53.40822 | -6.03713 | 2767 ft | 151 kts | 279° |
| 2026-05-04 20:43 | 53.40919 | -6.05418 | 2586 ft | 147 kts | 279° |
| 2026-05-04 20:43 | 53.41016 | -6.07101 | 2392 ft | 143 kts | 279° |
| 2026-05-04 20:43 | 53.41109 | -6.08745 | 2193 ft | 140 kts | 279° |
| 2026-05-04 20:44 | 53.41201 | -6.10364 | 2042 ft | 138 kts | 279° |
| 2026-05-04 20:44 | 53.41292 | -6.11962 | 1842 ft | 137 kts | 278° |
| 2026-05-04 20:44 | 53.41382 | -6.13553 | 1644 ft | 137 kts | 278° |
| 2026-05-04 20:44 | 53.41471 | -6.15139 | 1456 ft | 137 kts | 278° |
| 2026-05-04 20:45 | 53.41561 | -6.16725 | 1262 ft | 137 kts | 278° |
| 2026-05-04 20:45 | 53.41654 | -6.18311 | 1061 ft | 137 kts | 277° |
| 2026-05-04 20:45 | 53.41752 | -6.19903 | 860 ft | 137 kts | 275° |
| 2026-05-04 20:45 | 53.41809 | -6.21497 | 695 ft | 137 kts | 272° |
| 2026-05-04 20:46 | 53.41908 | -6.23089 | 501 ft | 137 kts | 276° |
| 2026-05-04 20:46 | 53.42007 | -6.24669 | 264 ft | 134 kts | 273° |
| 2026-05-04 20:46 | 53.42081 | -6.26166 | 211 ft | 117 kts | 276° |
| 2026-05-04 20:46 | 53.42149 | -6.27249 | 218 ft | 70 kts | 274° |
| 2026-05-04 20:47 | 53.42192 | -6.27766 | 213 ft | 36 kts | 288° |
| 2026-05-04 20:47 | 53.42257 | -6.28022 | 215 ft | 8 kts | 291° |
| 2026-05-04 20:47 | 53.42284 | -6.28097 | 212 ft | 7 kts | 307° |
| 2026-05-04 20:47 | 53.42327 | -6.28130 | 215 ft | 7 kts | 354° |
| 2026-05-04 20:48 | 53.42358 | -6.28094 | 211 ft | 5 kts | 66° |
| 2026-05-04 20:48 | 53.42364 | -6.28040 | 211 ft | 4 kts | 84° |
| 2026-05-04 20:48 | 53.42363 | -6.27972 | 215 ft | 8 kts | 96° |
| 2026-05-04 20:48 | 53.42356 | -6.27887 | 211 ft | 7 kts | 97° |
| 2026-05-04 20:49 | 53.42350 | -6.27813 | 219 ft | 6 kts | 96° |
| 2026-05-04 20:49 | 53.42344 | -6.27703 | 211 ft | 17 kts | 95° |
| 2026-05-04 20:49 | 53.42332 | -6.27487 | 211 ft | 20 kts | 95° |
| 2026-05-04 20:49 | 53.42319 | -6.27243 | 211 ft | 22 kts | 95° |
| 2026-05-04 20:50 | 53.42303 | -6.26973 | 215 ft | 24 kts | 96° |
| 2026-05-04 20:50 | 53.42290 | -6.26728 | 211 ft | 19 kts | 95° |
| 2026-05-04 20:50 | 53.42276 | -6.26491 | 218 ft | 22 kts | 95° |
| 2026-05-04 20:50 | 53.42261 | -6.26226 | 211 ft | 24 kts | 96° |
| 2026-05-04 20:51 | 53.42246 | -6.25936 | 211 ft | 26 kts | 94° |
| 2026-05-04 20:51 | 53.42230 | -6.25624 | 213 ft | 24 kts | 95° |
| 2026-05-04 20:51 | 53.42223 | -6.25488 | 211 ft | 8 kts | 95° |
| 2026-05-04 20:51 | 53.42217 | -6.25388 | 211 ft | 12 kts | 95° |
| 2026-05-04 20:52 | 53.42209 | -6.25254 | 211 ft | 11 kts | 96° |
| 2026-05-04 20:52 | 53.42205 | -6.25177 | 211 ft | 0 kts | 95° |
| 2026-05-04 20:52 | 53.42201 | -6.25102 | 211 ft | 21 kts | 95° |
| 2026-05-04 20:52 | 53.42252 | -6.24956 | 211 ft | 15 kts | 46° |
| 2026-05-04 20:53 | 53.42322 | -6.24839 | 217 ft | 14 kts | 45° |
| 2026-05-04 20:53 | 53.42385 | -6.24733 | 211 ft | 5 kts | 47° |
| 2026-05-04 20:53 | 53.42402 | -6.24703 | 211 ft | 3 kts | 52° |
| 2026-05-04 20:53 | 53.42402 | -6.24674 | 211 ft | 1 kts | 103° |
| 2026-05-04 20:54 | 53.42397 | -6.24659 | 211 ft | 1 kts | 114° |
| 2026-05-04 20:54 | 53.42391 | -6.24648 | 217 ft | 5 kts | 133° |
| 2026-05-04 20:54 | 53.42365 | -6.24604 | 213 ft | 5 kts | 138° |
| 2026-05-04 20:54 | 53.42342 | -6.24569 | 211 ft | 4 kts | 135° |
| 2026-05-04 20:55 | 53.42325 | -6.24539 | 211 ft | 0 kts | 134° |
| 2026-05-04 20:56 | 53.42325 | -6.24538 | 211 ft | 0 kts | 134° |
| 2026-05-04 20:57 | 53.42326 | -6.24541 | 211 ft | 0 kts | 134° |